Time;durP1;ratioP1;P1;durP2;ratioP2;P2;SDS_P1;SDS_P2;PMS_P1;PMS_P2;Temp;Humidity;BMP_temperature;BMP_pressure;BME280_temperature;BME280_humidity;BME280_pressure;Samples;Min_cycle;Max_cycle;Signal;HPM_P1;HPM_P2
2021/10/15 00:00:47;;;;;;;20.52;12.20;;;;;;;-141.50;100.00;63355.56;4983557;28;20125;-86
2021/10/15 00:03:14;;;;;;;20.27;12.57;;;;;;;-141.50;100.00;63355.56;4964293;28;20149;-82
2021/10/15 00:05:41;;;;;;;22.02;13.48;;;;;;;-141.50;100.00;63355.56;4982326;28;20055;-81
2021/10/15 00:08:08;;;;;;;22.27;12.95;;;;;;;-141.50;100.00;63355.56;4983218;28;20043;-84
2021/10/15 00:10:34;;;;;;;23.52;13.35;;;;;;;-141.50;100.00;63355.56;4966203;28;20770;-87
2021/10/15 00:13:01;;;;;;;21.55;12.80;;;;;;;-141.50;100.00;63355.56;4964774;28;20138;-83
2021/10/15 00:15:27;;;;;;;22.52;13.63;;;;;;;-141.50;100.00;63355.56;4963625;28;20051;-85
2021/10/15 00:17:54;;;;;;;23.80;13.48;;;;;;;-141.50;100.00;63355.56;4982479;28;20047;-87
2021/10/15 00:20:20;;;;;;;23.02;13.40;;;;;;;-141.50;100.00;63355.56;4965193;28;20135;-88
2021/10/15 00:22:47;;;;;;;22.73;14.25;;;;;;;-141.50;100.00;63355.56;4986504;28;20038;-84
2021/10/15 00:25:13;;;;;;;25.08;14.38;;;;;;;-141.50;100.00;63355.56;4983766;28;20053;-85
2021/10/15 00:27:40;;;;;;;23.70;14.30;;;;;;;-141.50;100.00;63355.56;4980877;28;20047;-86
2021/10/15 00:30:07;;;;;;;26.20;14.52;;;;;;;-141.50;100.00;63355.56;4965671;28;20122;-87
2021/10/15 00:32:34;;;;;;;22.83;14.48;;;;;;;-141.50;100.00;63355.56;4949350;28;20681;-82
2021/10/15 00:35:00;;;;;;;24.30;14.60;;;;;;;-141.50;100.00;63355.56;4985862;28;20043;-79
2021/10/15 00:37:27;;;;;;;25.60;14.77;;;;;;;-141.50;100.00;63355.56;4957595;28;20102;-86
2021/10/15 00:39:53;;;;;;;24.23;14.13;;;;;;;-141.50;100.00;63355.56;4957961;28;20062;-84
2021/10/15 00:42:20;;;;;;;25.55;14.93;;;;;;;-141.50;100.00;63355.56;4961068;28;20046;-83
2021/10/15 00:44:47;;;;;;;25.77;15.73;;;;;;;-141.50;100.00;63355.56;4979725;28;20065;-86
2021/10/15 00:47:13;;;;;;;23.67;14.00;;;;;;;-141.50;100.00;63355.56;4965182;28;20035;-80
2021/10/15 00:49:40;;;;;;;25.10;14.52;;;;;;;-141.50;100.00;63355.56;4984018;28;20042;-83
2021/10/15 00:52:08;;;;;;;21.60;13.35;;;;;;;-141.50;100.00;63355.56;4962381;28;20072;-84
2021/10/15 00:54:35;;;;;;;22.65;14.48;;;;;;;-141.50;100.00;63355.56;4980248;28;20126;-85
2021/10/15 00:57:02;;;;;;;22.98;14.30;;;;;;;-141.50;100.00;63355.56;4964309;28;20047;-86
2021/10/15 00:59:29;;;;;;;23.67;15.07;;;;;;;-141.50;100.00;63355.56;4981426;28;20129;-83
2021/10/15 01:01:55;;;;;;;26.23;14.57;;;;;;;-141.50;100.00;63355.56;4966287;28;20066;-87
2021/10/15 01:04:22;;;;;;;23.08;15.02;;;;;;;-141.50;100.00;63355.56;4981488;28;20039;-81
2021/10/15 01:06:49;;;;;;;24.27;15.60;;;;;;;-141.50;100.00;63355.56;4966164;28;20531;-84
2021/10/15 01:09:17;;;;;;;29.80;16.10;;;;;;;-141.50;100.00;63355.56;4983421;28;20050;-83
2021/10/15 01:11:43;;;;;;;25.42;15.80;;;;;;;-141.50;100.00;63355.56;4965397;28;20043;-82
2021/10/15 01:14:10;;;;;;;25.00;15.07;;;;;;;-141.50;100.00;63355.56;4947329;28;20043;-84
2021/10/15 01:16:36;;;;;;;24.80;15.30;;;;;;;-141.50;100.00;63355.56;4965879;28;20039;-85
2021/10/15 01:19:03;;;;;;;25.30;14.50;;;;;;;-141.50;100.00;63355.56;4980172;28;20435;-81
2021/10/15 01:21:31;;;;;;;26.85;15.80;;;;;;;-141.50;100.00;63355.56;4978269;28;20043;-80
2021/10/15 01:23:58;;;;;;;25.60;16.55;;;;;;;-141.50;100.00;63355.56;4978995;28;20514;-80
2021/10/15 01:26:25;;;;;;;24.52;15.50;;;;;;;-141.50;100.00;63355.56;4960026;28;20470;-84
2021/10/15 01:28:53;;;;;;;25.80;15.82;;;;;;;-141.50;100.00;63355.56;4958583;28;20043;-84
2021/10/15 01:31:20;;;;;;;28.10;16.42;;;;;;;-141.50;100.00;63355.56;4959038;28;20047;-84
2021/10/15 01:33:46;;;;;;;26.38;16.00;;;;;;;-141.50;100.00;63355.56;4978012;28;20046;-83
2021/10/15 01:36:13;;;;;;;27.88;16.25;;;;;;;-141.50;100.00;63355.56;4945549;28;20069;-81
2021/10/15 01:38:40;;;;;;;23.02;14.30;;;;;;;-141.50;100.00;63355.56;4961723;28;20058;-84
2021/10/15 01:41:08;;;;;;;28.70;15.60;;;;;;;-141.50;100.00;63355.56;4962511;28;20047;-84
2021/10/15 01:43:35;;;;;;;22.17;14.20;;;;;;;-141.50;100.00;63355.56;4963213;28;20039;-83
2021/10/15 01:46:01;;;;;;;25.70;15.82;;;;;;;-141.50;100.00;63355.56;4981097;28;20544;-84
2021/10/15 01:48:29;;;;;;;24.88;14.85;;;;;;;-141.50;100.00;63355.56;4963445;28;20054;-83
2021/10/15 01:50:55;;;;;;;25.23;14.48;;;;;;;-141.50;100.00;63355.56;4947234;28;20047;-83
2021/10/15 01:53:22;;;;;;;21.67;13.77;;;;;;;-141.50;100.00;63355.56;4963770;28;20047;-87
2021/10/15 01:55:48;;;;;;;23.25;13.63;;;;;;;-141.50;100.00;63355.56;4981819;28;20046;-82
2021/10/15 01:58:18;;;;;;;23.33;13.95;;;;;;;-141.50;100.00;63355.56;4965571;28;20055;-86
2021/10/15 02:00:46;;;;;;;26.08;13.60;;;;;;;-141.50;100.00;63355.56;4947567;28;20051;-82
2021/10/15 02:03:13;;;;;;;24.33;14.05;;;;;;;-141.50;100.00;63355.56;4975178;28;20410;-80
2021/10/15 02:05:40;;;;;;;24.10;13.60;;;;;;;-141.50;100.00;63355.56;4944253;28;20050;-86
2021/10/15 02:08:07;;;;;;;23.75;12.57;;;;;;;-141.50;100.00;63355.56;4962020;28;20478;-81
2021/10/15 02:10:33;;;;;;;23.48;12.85;;;;;;;-141.50;100.00;63355.56;4984581;28;20057;-86
2021/10/15 02:13:00;;;;;;;19.85;12.15;;;;;;;-141.50;100.00;63355.56;4967574;28;20110;-82
2021/10/15 02:15:27;;;;;;;18.95;11.95;;;;;;;-141.50;100.00;63355.56;4985251;28;20053;-84
2021/10/15 02:17:53;;;;;;;18.02;11.48;;;;;;;-141.50;100.00;63355.56;4966939;28;20047;-83
2021/10/15 02:20:20;;;;;;;21.88;11.50;;;;;;;-141.50;100.00;63355.56;4967750;28;20073;-84
2021/10/15 02:22:48;;;;;;;18.20;11.98;;;;;;;-141.50;100.00;63355.56;4969488;28;20051;-81
2021/10/15 02:25:17;;;;;;;24.98;12.57;;;;;;;-141.50;100.00;63355.56;4969750;28;20047;-81
2021/10/15 02:27:45;;;;;;;20.02;12.02;;;;;;;-141.50;100.00;63355.56;4979541;28;20098;-81
2021/10/15 02:30:14;;;;;;;22.77;11.98;;;;;;;-141.50;100.00;63355.56;4997402;28;20022;-79
2021/10/15 02:32:41;;;;;;;19.40;11.80;;;;;;;-141.50;100.00;63355.56;4975342;28;20043;-83
2021/10/15 02:35:09;;;;;;;19.38;11.50;;;;;;;-141.50;100.00;63355.56;4985395;28;20051;-82
2021/10/15 02:37:36;;;;;;;21.33;11.55;;;;;;;-141.50;100.00;63355.56;4963849;28;20027;-79
2021/10/15 02:40:04;;;;;;;18.75;11.40;;;;;;;-141.50;100.00;63355.56;4931430;29;20043;-85
2021/10/15 02:42:31;;;;;;;19.10;11.77;;;;;;;-141.50;100.00;63355.56;4947027;29;20129;-85
2021/10/15 02:44:58;;;;;;;21.13;11.45;;;;;;;-141.50;100.00;63355.56;4959520;29;20050;-84
2021/10/15 02:47:24;;;;;;;20.33;11.98;;;;;;;-141.50;100.00;63355.56;4961461;29;20043;-86
2021/10/15 02:49:51;;;;;;;20.45;11.20;;;;;;;-141.50;100.00;63355.56;4946267;29;20111;-86
2021/10/15 02:52:18;;;;;;;20.98;11.82;;;;;;;-141.50;100.00;63355.56;4947460;29;20054;-82
2021/10/15 02:54:45;;;;;;;18.83;11.30;;;;;;;-141.50;100.00;63355.56;4963898;29;20054;-84
2021/10/15 02:57:12;;;;;;;15.13;9.88;;;;;;;-141.50;100.00;63355.56;4945586;29;20047;-85
2021/10/15 02:59:39;;;;;;;13.68;8.27;;;;;;;-141.50;100.00;63355.56;4945455;29;20043;-84
2021/10/15 03:02:05;;;;;;;16.67;9.43;;;;;;;-141.50;100.00;63355.56;4947096;29;20043;-87
2021/10/15 03:04:32;;;;;;;17.50;9.20;;;;;;;-141.50;100.00;63355.56;4948694;29;20063;-84
2021/10/15 03:06:59;;;;;;;14.95;9.68;;;;;;;-141.50;100.00;63355.56;4948934;29;20142;-83
2021/10/15 03:09:25;;;;;;;18.73;10.82;;;;;;;-141.50;100.00;63355.56;4965485;29;20039;-86
2021/10/15 03:11:55;;;;;;;17.40;10.82;;;;;;;-141.50;100.00;63355.56;4948495;29;20047;-83
2021/10/15 03:14:22;;;;;;;18.80;11.75;;;;;;;-141.50;100.00;63355.56;4945337;29;20043;-84
2021/10/15 03:16:49;;;;;;;16.60;11.40;;;;;;;-141.50;100.00;63355.56;4939963;29;20043;-83
2021/10/15 03:19:16;;;;;;;17.45;11.98;;;;;;;-141.50;100.00;63355.56;4944037;29;20110;-85
2021/10/15 03:21:43;;;;;;;26.13;13.10;;;;;;;-141.50;100.00;63355.56;4963567;28;20054;-86
2021/10/15 03:24:10;;;;;;;19.38;12.73;;;;;;;-141.50;100.00;63355.56;4965853;29;20043;-85
2021/10/15 03:26:36;;;;;;;18.90;12.82;;;;;;;-141.50;100.00;63355.56;4924999;29;20051;-84
2021/10/15 03:29:03;;;;;;;19.17;11.75;;;;;;;-141.50;100.00;63355.56;4943156;29;20043;-83
2021/10/15 03:31:30;;;;;;;20.42;12.02;;;;;;;-141.50;100.00;63355.56;4949991;28;20074;-84
2021/10/15 03:33:56;;;;;;;19.55;11.55;;;;;;;-141.50;100.00;63355.56;4956820;28;20043;-85
2021/10/15 03:36:23;;;;;;;19.63;11.10;;;;;;;-141.50;100.00;63355.56;4939391;28;20043;-84
2021/10/15 03:38:50;;;;;;;21.10;12.02;;;;;;;-141.50;100.00;63355.56;4959507;28;20070;-83
2021/10/15 03:41:16;;;;;;;16.95;11.02;;;;;;;-141.50;100.00;63355.56;4984216;28;20557;-82
2021/10/15 03:43:43;;;;;;;20.25;11.90;;;;;;;-141.50;100.00;63355.56;4966416;28;20109;-85
2021/10/15 03:46:09;;;;;;;19.10;11.57;;;;;;;-141.50;100.00;63355.56;4983584;28;20066;-83
2021/10/15 03:48:36;;;;;;;17.75;12.30;;;;;;;-141.50;100.00;63355.56;4950873;28;20146;-82
2021/10/15 03:51:03;;;;;;;23.50;13.43;;;;;;;-141.50;100.00;63355.56;4981090;28;20077;-83
2021/10/15 03:53:29;;;;;;;20.25;12.73;;;;;;;-141.50;100.00;63355.56;4948233;29;20047;-84
2021/10/15 03:55:56;;;;;;;22.83;13.63;;;;;;;-141.50;100.00;63355.56;4951458;28;20627;-82
2021/10/15 03:58:22;;;;;;;23.58;13.52;;;;;;;-141.50;100.00;63355.56;4962309;28;20062;-83
2021/10/15 04:00:49;;;;;;;23.45;13.98;;;;;;;-141.50;100.00;63355.56;4957124;28;20423;-84
2021/10/15 04:03:16;;;;;;;24.02;13.85;;;;;;;-141.50;100.00;63355.56;4959552;28;20053;-86
2021/10/15 04:05:42;;;;;;;23.58;15.07;;;;;;;-141.50;100.00;63355.56;4959673;28;20031;-85
2021/10/15 04:08:09;;;;;;;21.98;14.68;;;;;;;-141.50;100.00;63355.56;4945530;29;20054;-82
2021/10/15 04:10:35;;;;;;;25.20;14.38;;;;;;;-141.50;100.00;63355.56;4946129;28;20065;-85
2021/10/15 04:13:02;;;;;;;25.48;14.27;;;;;;;-141.50;100.00;63355.56;4960524;29;20130;-85
2021/10/15 04:15:29;;;;;;;28.65;15.60;;;;;;;-141.50;100.00;63355.56;4929385;29;20055;-83
2021/10/15 04:17:55;;;;;;;23.30;14.80;;;;;;;-141.50;100.00;63355.56;4962283;29;20051;-83
2021/10/15 04:20:22;;;;;;;27.20;15.23;;;;;;;-141.50;100.00;63355.56;4963921;28;20847;-84
2021/10/15 04:22:49;;;;;;;23.05;14.18;;;;;;;-141.50;100.00;63355.56;4948637;29;20085;-82
2021/10/15 04:25:15;;;;;;;23.10;14.77;;;;;;;-141.50;100.00;63355.56;4966715;29;20039;-82
2021/10/15 04:27:42;;;;;;;25.50;14.43;;;;;;;-141.50;100.00;63355.56;4952856;23;20427;-78
2021/10/15 04:30:09;;;;;;;22.08;14.45;;;;;;;-141.50;100.00;63355.56;4940622;29;20272;-78
2021/10/15 04:32:36;;;;;;;25.65;15.40;;;;;;;-141.50;100.00;63355.56;4924357;29;20114;-77
2021/10/15 04:35:03;;;;;;;21.80;14.65;;;;;;;-141.50;100.00;63355.56;4924576;29;20090;-77
2021/10/15 04:37:30;;;;;;;22.13;14.48;;;;;;;-141.50;100.00;63355.56;4940628;29;20110;-77
2021/10/15 04:39:57;;;;;;;27.73;15.40;;;;;;;-141.50;100.00;63355.56;4934960;29;20289;-78
2021/10/15 04:42:24;;;;;;;26.92;15.75;;;;;;;-141.50;100.00;63355.56;4914993;29;20135;-78
2021/10/15 04:44:52;;;;;;;25.83;15.85;;;;;;;-141.50;100.00;63355.56;4899581;29;20048;-78
2021/10/15 04:47:18;;;;;;;27.40;15.82;;;;;;;-141.50;100.00;63355.56;4925883;29;20493;-77
2021/10/15 04:49:45;;;;;;;31.65;15.75;;;;;;;-141.50;100.00;63355.56;4927691;29;20055;-78
2021/10/15 04:52:11;;;;;;;27.88;15.82;;;;;;;-141.50;100.00;63355.56;4910822;29;20177;-78
2021/10/15 04:54:38;;;;;;;28.60;16.08;;;;;;;-141.50;100.00;63355.56;4927684;29;20146;-77
2021/10/15 04:57:05;;;;;;;26.90;15.77;;;;;;;-141.50;100.00;63355.56;4922738;29;20488;-78
2021/10/15 04:59:31;;;;;;;25.38;14.27;;;;;;;-141.50;100.00;63355.56;4916235;29;20472;-78
2021/10/15 05:01:58;;;;;;;20.85;14.27;;;;;;;-141.50;100.00;63355.56;4916444;29;20570;-78
2021/10/15 05:04:25;;;;;;;28.80;13.88;;;;;;;-141.50;100.00;63355.56;4900732;29;20043;-78
2021/10/15 05:06:52;;;;;;;21.27;12.82;;;;;;;-141.50;100.00;63355.56;4915761;29;20140;-78
2021/10/15 05:12:00;;;;;;;22.00;12.57;;;;;;;-141.50;100.00;63355.56;4915391;29;20055;-78
2021/10/15 05:14:27;;;;;;;23.83;12.65;;;;;;;-141.50;100.00;63355.56;4900103;29;20373;-78
2021/10/15 05:16:54;;;;;;;23.13;12.50;;;;;;;-141.50;100.00;63355.56;4899800;29;20134;-78
2021/10/15 05:19:20;;;;;;;22.52;11.88;;;;;;;-141.50;100.00;63355.56;4917252;29;20505;-78
2021/10/15 05:21:47;;;;;;;18.67;10.70;;;;;;;-141.50;100.00;63355.56;4916814;29;20057;-78
2021/10/15 05:24:14;;;;;;;21.75;11.30;;;;;;;-141.50;100.00;63355.56;4916173;29;20067;-78
2021/10/15 05:26:41;;;;;;;18.52;11.20;;;;;;;-141.50;100.00;63355.56;4910980;29;20082;-78
2021/10/15 05:29:07;;;;;;;19.98;11.43;;;;;;;-141.50;100.00;63355.56;4915454;29;20047;-79
2021/10/15 05:31:36;;;;;;;19.08;11.30;;;;;;;-141.50;100.00;63355.56;4921593;29;20043;-78
2021/10/15 05:34:03;;;;;;;17.35;10.57;;;;;;;-141.50;100.00;63355.56;4920073;29;20048;-79
2021/10/15 05:36:29;;;;;;;19.30;10.95;;;;;;;-141.50;100.00;63355.56;4912108;29;20059;-78
2021/10/15 05:38:56;;;;;;;23.15;10.70;;;;;;;-141.50;100.00;63355.56;4930427;29;20051;-79
2021/10/15 05:41:22;;;;;;;18.20;10.20;;;;;;;-141.50;100.00;63355.56;4934828;29;20118;-79
2021/10/15 05:43:49;;;;;;;20.25;10.23;;;;;;;-141.50;100.00;63355.56;4951658;28;20063;-79
2021/10/15 05:46:16;;;;;;;16.35;9.35;;;;;;;-141.50;100.00;63355.56;4944005;29;20035;-79
2021/10/15 05:48:42;;;;;;;16.08;9.18;;;;;;;-141.50;100.00;63355.56;4937450;29;20055;-79
2021/10/15 05:51:09;;;;;;;18.55;9.10;;;;;;;-141.50;100.00;63355.56;4936646;29;20484;-79
2021/10/15 05:53:36;;;;;;;12.98;8.27;;;;;;;-141.50;100.00;63355.56;4933970;29;20048;-79
2021/10/15 05:56:23;;;;;;;13.13;7.90;;;;;;;-141.50;100.00;63355.56;4933864;29;20044;-78
2021/10/15 05:58:50;;;;;;;14.02;7.63;;;;;;;-141.50;100.00;63355.56;4939839;29;20043;-78
2021/10/15 06:01:20;;;;;;;14.60;8.23;;;;;;;-141.50;100.00;63355.56;4947103;29;20032;-80
2021/10/15 06:03:51;;;;;;;11.80;7.30;;;;;;;-141.50;100.00;63355.56;4914354;29;20055;-79
2021/10/15 06:14:00;;;;;;;12.55;6.80;;;;;;;-141.50;100.00;63355.56;4908513;29;20048;-79
2021/10/15 06:14:51;;;;;;;14.65;7.13;;;;;;;-141.50;100.00;63355.56;4938018;29;20057;-80
2021/10/15 06:17:18;;;;;;;12.60;6.40;;;;;;;-141.50;100.00;63355.56;4920642;29;20059;-79
2021/10/15 06:19:54;;;;;;;9.85;6.22;;;;;;;-141.50;100.00;63355.56;4947077;29;20121;-79
2021/10/15 06:22:25;;;;;;;10.50;5.88;;;;;;;-141.50;100.00;63355.56;4938697;29;20051;-79
2021/10/15 06:24:53;;;;;;;10.73;6.15;;;;;;;-141.50;100.00;63355.56;4955353;29;20082;-80
2021/10/15 06:27:23;;;;;;;9.57;5.95;;;;;;;-141.50;100.00;63355.56;4938702;29;20094;-78
2021/10/15 06:29:50;;;;;;;10.57;6.25;;;;;;;-141.50;100.00;63355.56;4938546;29;20134;-78
2021/10/15 06:32:21;;;;;;;10.82;5.53;;;;;;;-141.50;100.00;63355.56;4938956;29;20055;-80
2021/10/15 06:34:49;;;;;;;9.93;5.57;;;;;;;-141.50;100.00;63355.56;4949921;29;20055;-78
2021/10/15 06:37:17;;;;;;;8.60;5.70;;;;;;;-141.50;100.00;63355.56;4913588;29;20043;-79
2021/10/15 06:39:47;;;;;;;10.07;5.80;;;;;;;-141.50;100.00;63355.56;4919123;29;20055;-78
2021/10/15 06:42:14;;;;;;;13.90;6.32;;;;;;;-141.50;100.00;63355.56;4931859;29;20107;-78
2021/10/15 06:44:41;;;;;;;9.45;5.82;;;;;;;-141.50;100.00;63355.56;4899614;29;20066;-78
2021/10/15 06:47:07;;;;;;;10.88;5.82;;;;;;;-141.50;100.00;63355.56;4900378;29;20056;-78
2021/10/15 06:49:34;;;;;;;10.70;5.72;;;;;;;-141.50;100.00;63355.56;4931947;23;20121;-84
2021/10/15 06:52:01;;;;;;;12.80;5.80;;;;;;;-141.50;100.00;63355.56;4917632;29;20087;-82
2021/10/15 06:54:28;;;;;;;11.10;5.20;;;;;;;-141.50;100.00;63355.56;4932958;28;20047;-83
2021/10/15 06:56:55;;;;;;;8.90;5.40;;;;;;;-141.50;100.00;63355.56;4917968;29;20051;-81
2021/10/15 06:59:21;;;;;;;9.95;5.28;;;;;;;-141.50;100.00;63355.56;4933564;29;20093;-81
2021/10/15 07:01:48;;;;;;;8.93;4.90;;;;;;;-141.50;100.00;63355.56;4918101;29;20178;-82
2021/10/15 07:04:15;;;;;;;10.55;5.57;;;;;;;-141.50;100.00;63355.56;4935795;28;20090;-81
2021/10/15 07:06:41;;;;;;;9.80;4.95;;;;;;;-141.50;100.00;63355.56;4936805;28;20106;-80
2021/10/15 07:09:08;;;;;;;10.07;5.43;;;;;;;-141.50;100.00;63355.56;4969640;28;20515;-84
2021/10/15 07:11:38;;;;;;;8.30;5.00;;;;;;;-141.50;100.00;63355.56;4952274;28;20301;-83
2021/10/15 07:14:05;;;;;;;8.50;5.00;;;;;;;-141.50;100.00;63355.56;4930546;29;20056;-81
2021/10/15 07:16:33;;;;;;;10.40;4.93;;;;;;;-141.50;100.00;63355.56;4929531;29;20142;-82
2021/10/15 07:19:00;;;;;;;7.70;4.60;;;;;;;-141.50;100.00;63355.56;4929625;29;20380;-80
2021/10/15 07:21:27;;;;;;;9.73;4.88;;;;;;;-141.50;100.00;63355.56;4913863;29;20313;-83
2021/10/15 07:23:54;;;;;;;11.60;4.78;;;;;;;-141.50;100.00;63355.56;4946228;29;20099;-80
2021/10/15 07:26:21;;;;;;;8.00;4.50;;;;;;;-141.50;100.00;63355.56;4929080;29;20130;-81
2021/10/15 07:28:48;;;;;;;10.95;5.20;;;;;;;-141.50;100.00;63355.56;4929398;29;20075;-81
2021/10/15 07:31:15;;;;;;;10.20;5.30;;;;;;;-141.50;100.00;63355.56;4929399;29;20179;-80
2021/10/15 07:33:43;;;;;;;10.77;5.15;;;;;;;-141.50;100.00;63355.56;4913730;29;20079;-81
2021/10/15 07:36:09;;;;;;;10.40;5.80;;;;;;;-141.50;100.00;63355.56;4932228;29;20058;-84
2021/10/15 07:38:37;;;;;;;15.85;5.90;;;;;;;-141.50;100.00;63355.56;4932387;29;20051;-84
2021/10/15 07:41:05;;;;;;;14.27;5.95;;;;;;;-141.50;100.00;63355.56;4917324;29;20055;-81
2021/10/15 07:43:32;;;;;;;10.18;5.25;;;;;;;-141.50;100.00;63355.56;4934241;29;20051;-82
2021/10/15 07:45:59;;;;;;;10.23;5.30;;;;;;;-141.50;100.00;63355.56;4914610;29;20150;-81
2021/10/15 07:48:26;;;;;;;11.98;5.47;;;;;;;-141.50;100.00;63355.56;4913549;29;20051;-80
2021/10/15 07:50:53;;;;;;;16.20;5.88;;;;;;;-141.50;100.00;63355.56;4914018;29;20048;-83
2021/10/15 07:53:20;;;;;;;10.00;5.50;;;;;;;-141.50;100.00;63355.56;4933795;28;20051;-80
2021/10/15 07:55:47;;;;;;;10.95;5.38;;;;;;;-141.50;100.00;63355.56;4935089;28;20047;-81
2021/10/15 07:58:14;;;;;;;11.77;5.25;;;;;;;-141.50;100.00;63355.56;4935305;28;20275;-83
2021/10/15 08:00:41;;;;;;;9.40;4.85;;;;;;;-141.50;100.00;63355.56;4951997;28;20133;-81
2021/10/15 08:03:08;;;;;;;10.10;5.35;;;;;;;-141.50;100.00;63355.56;4951094;28;20487;-82
2021/10/15 08:05:35;;;;;;;10.07;5.63;;;;;;;-141.50;100.00;63355.56;4934905;28;20064;-80
2021/10/15 08:08:02;;;;;;;10.20;5.18;;;;;;;-141.50;100.00;63355.56;4950118;28;20535;-80
2021/10/15 08:10:29;;;;;;;8.90;4.93;;;;;;;-141.50;100.00;63355.56;4934567;28;20361;-81
2021/10/15 08:12:56;;;;;;;9.00;5.35;;;;;;;-141.50;100.00;63355.56;4934626;28;20043;-80
2021/10/15 08:15:24;;;;;;;10.10;5.00;;;;;;;-141.50;100.00;63355.56;4950775;28;20123;-84
2021/10/15 08:17:52;;;;;;;7.68;4.30;;;;;;;-141.50;100.00;63355.56;4919984;29;20048;-81
2021/10/15 08:20:20;;;;;;;9.13;5.13;;;;;;;-141.50;100.00;63355.56;4913017;29;20154;-82
2021/10/15 08:22:53;;;;;;;10.32;4.65;;;;;;;-141.50;100.00;63355.56;4897219;29;20056;-85
2021/10/15 08:25:24;;;;;;;12.18;4.72;;;;;;;-141.50;100.00;63355.56;4913648;29;20126;-85
2021/10/15 08:27:51;;;;;;;9.00;4.18;;;;;;;-141.50;100.00;63355.56;4912666;29;20123;-82
2021/10/15 08:30:18;;;;;;;8.05;4.43;;;;;;;-141.50;100.00;63355.56;4898013;29;20150;-81
2021/10/15 08:32:44;;;;;;;8.20;4.32;;;;;;;-141.50;100.00;63355.56;4913973;29;20063;-80
2021/10/15 08:35:11;;;;;;;10.30;4.43;;;;;;;-141.50;100.00;63355.56;4933421;28;20482;-84
2021/10/15 08:37:41;;;;;;;10.98;4.47;;;;;;;-141.50;100.00;63355.56;4951267;28;20050;-82
2021/10/15 08:40:09;;;;;;;10.10;4.25;;;;;;;-141.50;100.00;63355.56;4934358;28;20176;-81
2021/10/15 08:42:37;;;;;;;7.95;3.95;;;;;;;-141.50;100.00;63355.56;4936113;28;20480;-84
2021/10/15 08:45:05;;;;;;;9.40;4.03;;;;;;;-141.50;100.00;63355.56;4966961;28;20057;-83
2021/10/15 08:47:32;;;;;;;7.63;4.28;;;;;;;-141.50;100.00;63355.56;4951886;28;20054;-82
2021/10/15 08:50:20;;;;;;;8.82;4.07;;;;;;;-141.50;100.00;63355.56;4937519;28;20051;-80
2021/10/15 08:52:47;;;;;;;8.73;3.80;;;;;;;-141.50;100.00;63355.56;4934934;28;20175;-82
2021/10/15 08:55:14;;;;;;;8.88;4.03;;;;;;;-141.50;100.00;63355.56;4934802;28;20039;-83
2021/10/15 08:57:55;;;;;;;8.18;3.83;;;;;;;-141.50;100.00;63355.56;4951217;28;20069;-81
2021/10/15 09:00:30;;;;;;;8.77;3.80;;;;;;;-141.50;100.00;63355.56;4936896;28;20051;-81
2021/10/15 09:03:21;;;;;;;10.90;4.00;;;;;;;-141.50;100.00;63355.56;4935608;28;20054;-83
2021/10/15 09:06:02;;;;;;;5.90;3.53;;;;;;;-141.50;100.00;63355.56;4916145;29;20047;-83
2021/10/15 09:08:56;;;;;;;4.80;3.30;;;;;;;-141.50;100.00;63355.56;4930530;28;20120;-81
2021/10/15 09:11:45;;;;;;;9.63;3.33;;;;;;;-141.50;100.00;63355.56;4950698;28;20043;-82
2021/10/15 09:14:21;;;;;;;7.82;3.42;;;;;;;-141.50;100.00;63355.56;4934116;28;20128;-80
2021/10/15 09:17:09;;;;;;;11.18;3.10;;;;;;;-141.50;100.00;63355.56;4951338;28;20078;-83
2021/10/15 09:19:40;;;;;;;8.10;3.38;;;;;;;-141.50;100.00;63355.56;4947348;28;20125;-81
2021/10/15 09:22:07;;;;;;;3.90;2.63;;;;;;;-141.50;100.00;63355.56;4916092;29;20087;-84
2021/10/15 09:24:50;;;;;;;8.45;2.88;;;;;;;-141.50;100.00;63355.56;4916182;29;20055;-81
2021/10/15 09:27:22;;;;;;;4.53;2.88;;;;;;;-141.50;100.00;63355.56;4901180;29;20051;-83
2021/10/15 09:29:54;;;;;;;5.13;2.67;;;;;;;-141.50;100.00;63355.56;4900743;29;20468;-81
2021/10/15 09:32:26;;;;;;;6.03;2.90;;;;;;;-141.50;100.00;63355.56;4900707;29;20047;-80
2021/10/15 09:34:54;;;;;;;4.28;2.35;;;;;;;-141.50;100.00;63355.56;4915359;28;20071;-80
2021/10/15 09:37:33;;;;;;;4.57;2.50;;;;;;;-141.50;100.00;63355.56;4938194;28;20243;-87
2021/10/15 09:40:25;;;;;;;6.15;2.50;;;;;;;-141.50;100.00;63355.56;4962192;28;20058;-82
2021/10/15 09:42:57;;;;;;;8.05;2.60;;;;;;;-141.50;100.00;63355.56;4945538;28;20398;-80
2021/10/15 09:45:27;;;;;;;3.92;1.98;;;;;;;-141.50;100.00;63355.56;4925539;29;20098;-80
2021/10/15 09:47:57;;;;;;;5.72;2.38;;;;;;;-141.50;100.00;63355.56;4944114;29;20055;-80
2021/10/15 09:50:26;;;;;;;4.55;2.15;;;;;;;-141.50;100.00;63355.56;4940361;29;20590;-83
2021/10/15 09:52:55;;;;;;;4.38;2.13;;;;;;;-141.50;100.00;63355.56;4919582;29;20047;-80
2021/10/15 09:55:36;;;;;;;5.03;2.08;;;;;;;-141.50;100.00;63355.56;4935865;29;20207;-84
2021/10/15 09:58:17;;;;;;;8.40;2.03;;;;;;;-141.50;100.00;63355.56;4935472;29;20483;-82
2021/10/15 10:00:52;;;;;;;5.35;2.28;;;;;;;-141.50;100.00;63355.56;4939995;29;20146;-81
2021/10/15 10:03:22;;;;;;;4.68;1.98;;;;;;;-141.50;100.00;63355.56;4919721;29;20094;-80
2021/10/15 10:05:50;;;;;;;4.88;2.00;;;;;;;-141.50;100.00;63355.56;4966125;28;20058;-83
2021/10/15 10:08:18;;;;;;;6.65;2.20;;;;;;;-141.50;100.00;63355.56;4958798;28;20113;-84
2021/10/15 10:10:46;;;;;;;6.82;2.10;;;;;;;-141.50;100.00;63355.56;4958639;28;20569;-80
2021/10/15 10:13:15;;;;;;;5.20;2.00;;;;;;;-141.50;100.00;63355.56;4958702;28;20054;-79
2021/10/15 10:15:44;;;;;;;3.72;2.00;;;;;;;-141.50;100.00;63355.56;4975239;28;20129;-82
2021/10/15 10:20:47;;;;;;;;;;;;;;;-141.50;100.00;63355.56;4996454;28;20063;-82
2021/10/15 10:23:28;;;;;;;4.07;1.83;;;;;;;-141.50;100.00;63355.56;4944702;29;19923;-82
2021/10/15 10:26:00;;;;;;;3.78;1.70;;;;;;;-141.50;100.00;63355.56;4934896;28;20589;-84
2021/10/15 10:28:28;;;;;;;3.42;2.05;;;;;;;-141.50;100.00;63355.56;4961439;28;20053;-81
2021/10/15 10:31:03;;;;;;;3.63;1.92;;;;;;;-141.50;100.00;63355.56;4954046;28;20051;-83
2021/10/15 10:33:32;;;;;;;2.88;1.63;;;;;;;-141.50;100.00;63355.56;4951249;29;20058;-82
2021/10/15 10:36:12;;;;;;;3.85;1.80;;;;;;;-141.50;100.00;63355.56;4985133;28;20062;-81
2021/10/15 10:38:39;;;;;;;3.58;1.60;;;;;;;-141.50;100.00;63355.56;4970650;28;20418;-82
2021/10/15 10:41:06;;;;;;;3.78;1.80;;;;;;;-141.50;100.00;63355.56;4970318;28;20088;-82
2021/10/15 10:43:45;;;;;;;2.50;1.50;;;;;;;-141.50;100.00;63355.56;4958877;28;20043;-81
2021/10/15 10:46:15;;;;;;;2.67;1.67;;;;;;;-141.50;100.00;63355.56;4932522;29;20131;-83
2021/10/15 10:48:50;;;;;;;2.92;1.80;;;;;;;-141.50;100.00;63355.56;4951060;28;20365;-84
2021/10/15 10:51:24;;;;;;;5.00;1.83;;;;;;;-141.50;100.00;63355.56;4968441;28;20047;-82
2021/10/15 10:54:00;;;;;;;4.43;1.95;;;;;;;-141.50;100.00;63355.56;4953995;28;20046;-82
2021/10/15 10:56:41;;;;;;;4.53;2.00;;;;;;;-141.50;100.00;63355.56;4955750;28;20062;-85
2021/10/15 10:59:25;;;;;;;3.13;1.98;;;;;;;-141.50;100.00;63355.56;4968126;28;20041;-84
2021/10/15 11:02:20;;;;;;;3.72;1.98;;;;;;;-141.50;100.00;63355.56;4936668;29;20035;-82
2021/10/15 11:04:55;;;;;;;3.95;1.98;;;;;;;-141.50;100.00;63355.56;4934966;29;20042;-82
2021/10/15 11:07:27;;;;;;;3.75;2.10;;;;;;;-141.50;100.00;63355.56;4934980;29;20043;-80
2021/10/15 11:10:06;;;;;;;3.88;2.10;;;;;;;-141.50;100.00;63355.56;4935015;29;20146;-86
2021/10/15 11:12:32;;;;;;;3.95;2.13;;;;;;;-141.50;100.00;63355.56;4953421;28;20138;-85
2021/10/15 11:15:08;;;;;;;3.85;1.90;;;;;;;-141.50;100.00;63355.56;4970544;28;20046;-81
2021/10/15 11:17:38;;;;;;;4.30;2.10;;;;;;;-141.50;100.00;63355.56;4971414;28;20105;-79